createdAt,value
2022-09-13T00:00:26.803Z,22.45
2022-09-13T00:02:57.784Z,22.13
2022-09-13T00:05:29.416Z,17.37
2022-09-13T00:08:00.547Z,17.10
2022-09-13T00:10:32.127Z,16.80
2022-09-13T00:13:03.009Z,15.13
2022-09-13T00:15:34.118Z,19.57
2022-09-13T00:18:05.064Z,18.25
2022-09-13T00:20:35.858Z,18.17
2022-09-13T00:23:06.421Z,16.67
2022-09-13T00:25:37.600Z,16.27
2022-09-13T00:28:08.833Z,17.17
2022-09-13T00:30:39.715Z,16.75
2022-09-13T00:33:10.501Z,19.02
2022-09-13T00:35:41.299Z,15.20
2022-09-13T00:38:12.022Z,16.47
2022-09-13T00:40:42.909Z,18.27
2022-09-13T00:43:23.252Z,13.82
2022-09-13T00:45:54.205Z,14.50
2022-09-13T00:48:28.273Z,19.73
2022-09-13T00:50:59.677Z,16.73
2022-09-13T00:53:35.924Z,16.17
2022-09-13T00:56:31.785Z,15.30
2022-09-13T00:59:09.507Z,14.90
2022-09-13T01:01:47.862Z,17.55
2022-09-13T01:04:20.822Z,19.27
2022-09-13T01:06:54.448Z,16.77
2022-09-13T01:09:26.720Z,14.82
2022-09-13T01:12:13.295Z,19.08
2022-09-13T01:14:46.665Z,14.07
2022-09-13T01:17:17.561Z,13.85
2022-09-13T01:19:48.392Z,15.18
2022-09-13T01:22:39.827Z,13.57
2022-09-13T01:28:03.430Z,15.60
2022-09-13T01:30:51.384Z,14.38
2022-09-13T01:33:25.561Z,14.38
2022-09-13T01:36:27.371Z,12.82
2022-09-13T01:39:08.061Z,15.15
2022-09-13T01:41:53.711Z,13.20
2022-09-13T01:44:39.262Z,12.80
2022-09-13T01:47:26.926Z,12.18
2022-09-13T01:50:29.465Z,16.98
2022-09-13T01:53:25.345Z,14.00
2022-09-13T01:56:43.820Z,12.95
2022-09-13T01:59:31.213Z,15.48
2022-09-13T02:02:29.960Z,13.02
2022-09-13T02:05:08.760Z,18.20
2022-09-13T02:10:45.634Z,30.20
2022-09-13T02:13:28.507Z,16.90
2022-09-13T02:16:09.377Z,16.42
2022-09-13T02:18:46.963Z,18.13
2022-09-13T02:21:32.108Z,22.30
2022-09-13T02:24:16.696Z,20.63
2022-09-13T02:26:49.992Z,22.67
2022-09-13T02:29:24.174Z,21.83
2022-09-13T02:32:03.382Z,24.30
2022-09-13T02:35:03.398Z,24.27
2022-09-13T02:37:39.072Z,26.88
2022-09-13T02:40:24.642Z,26.55
2022-09-13T02:43:30.659Z,25.23
2022-09-13T02:46:28.360Z,24.88
2022-09-13T02:49:19.705Z,28.30
2022-09-13T02:52:22.782Z,25.95
2022-09-13T02:55:09.048Z,29.08
2022-09-13T02:58:05.709Z,28.52
2022-09-13T03:00:37.203Z,28.90
2022-09-13T03:05:52.972Z,25.35
2022-09-13T03:08:25.033Z,29.50
2022-09-13T03:11:17.975Z,26.17
2022-09-13T03:13:57.788Z,29.35
2022-09-13T03:16:54.628Z,25.45
2022-09-13T03:19:52.725Z,28.20
2022-09-13T03:22:32.162Z,28.13
2022-09-13T03:25:39.844Z,30.52
2022-09-13T03:28:44.301Z,30.13
2022-09-13T03:31:53.448Z,28.20
2022-09-13T03:34:48.353Z,28.88
2022-09-13T03:37:30.683Z,29.45
2022-09-13T03:40:04.729Z,28.90
2022-09-13T03:42:52.347Z,26.73
2022-09-13T03:45:33.865Z,25.75
2022-09-13T03:48:07.397Z,24.85
2022-09-13T03:50:39.316Z,25.10
2022-09-13T03:53:14.817Z,23.83
2022-09-13T03:55:48.112Z,26.63
2022-09-13T03:58:22.633Z,25.05
2022-09-13T04:00:57.674Z,25.92
2022-09-13T04:03:28.804Z,26.13
2022-09-13T04:05:59.499Z,24.70
2022-09-13T04:08:30.118Z,24.17
2022-09-13T04:11:01.131Z,26.92
2022-09-13T04:13:32.100Z,28.33
2022-09-13T04:16:07.911Z,26.98
2022-09-13T04:18:39.327Z,26.95
2022-09-13T04:23:41.062Z,27.27
2022-09-13T04:26:12.521Z,31.80
2022-09-13T04:28:44.673Z,30.20
2022-09-13T04:31:22.284Z,29.00
2022-09-13T04:33:54.716Z,32.30
2022-09-13T04:36:25.868Z,31.48
2022-09-13T04:38:56.804Z,26.35
2022-09-13T04:41:27.594Z,24.02
2022-09-13T04:43:58.889Z,25.85
2022-09-13T04:46:30.056Z,27.73
2022-09-13T04:49:01.668Z,31.45
2022-09-13T04:51:32.596Z,27.50
2022-09-13T04:54:03.563Z,31.55
2022-09-13T04:56:34.386Z,28.95
2022-09-13T04:59:05.078Z,29.42
2022-09-13T05:01:36.374Z,29.33
2022-09-13T05:04:08.788Z,28.65
2022-09-13T05:06:40.866Z,29.67
2022-09-13T05:09:16.853Z,27.98
2022-09-13T05:11:47.585Z,26.63
2022-09-13T05:14:18.445Z,28.48
2022-09-13T05:16:49.483Z,28.75
2022-09-13T05:19:20.461Z,27.60
2022-09-13T05:24:22.009Z,29.25
2022-09-13T05:26:52.933Z,26.95
2022-09-13T05:29:23.731Z,31.02
2022-09-13T05:31:54.539Z,30.25
2022-09-13T05:34:25.477Z,27.45
2022-09-13T05:36:56.503Z,29.40
2022-09-13T05:39:33.902Z,31.55
2022-09-13T05:42:10.502Z,30.73
2022-09-13T05:44:41.312Z,30.80
2022-09-13T05:47:12.317Z,31.50
2022-09-13T05:50:08.376Z,29.05
2022-09-13T05:52:33.830Z,29.67
2022-09-13T05:55:04.793Z,29.77
2022-09-13T05:57:35.513Z,30.60
2022-09-13T06:00:07.646Z,30.30
2022-09-13T06:02:42.878Z,28.58
2022-09-13T06:07:44.964Z,28.58
2022-09-13T06:10:16.084Z,28.20
2022-09-13T06:12:47.034Z,28.60
2022-09-13T06:17:49.647Z,28.50
2022-09-13T06:20:20.847Z,27.95
2022-09-13T06:22:52.475Z,27.33
2022-09-13T06:25:23.376Z,28.00
2022-09-13T06:27:54.130Z,27.35
2022-09-13T06:30:24.905Z,29.63
2022-09-13T06:32:55.967Z,29.08
2022-09-13T06:35:26.908Z,27.02
2022-09-13T06:38:01.476Z,27.63
2022-09-13T06:40:32.429Z,26.70
2022-09-13T06:43:03.253Z,27.35
2022-09-13T06:45:33.914Z,28.85
2022-09-13T06:48:04.841Z,28.70
2022-09-13T06:50:35.655Z,30.08
2022-09-13T06:53:06.952Z,28.45
2022-09-13T06:55:38.026Z,28.67
2022-09-13T06:58:09.105Z,27.73
2022-09-13T07:00:39.890Z,27.75
2022-09-13T07:03:11.500Z,27.08
2022-09-13T07:05:42.204Z,28.98
2022-09-13T07:08:12.995Z,27.58
2022-09-13T07:10:43.942Z,26.70
2022-09-13T07:13:14.854Z,27.83
2022-09-13T07:15:45.640Z,27.33
2022-09-13T07:18:16.321Z,26.77
2022-09-13T07:20:47.234Z,28.15
2022-09-13T07:23:17.782Z,28.10
2022-09-13T07:25:57.763Z,28.02
2022-09-13T07:28:31.195Z,27.42
2022-09-13T07:31:16.589Z,26.67
2022-09-13T07:33:48.498Z,26.83
2022-09-13T07:36:19.162Z,26.50
2022-09-13T07:38:50.900Z,26.83
2022-09-13T07:41:26.798Z,25.88
2022-09-13T07:43:58.321Z,25.85
2022-09-13T07:46:31.553Z,26.67
2022-09-13T07:49:04.742Z,27.98
2022-09-13T07:51:38.435Z,27.05
2022-09-13T07:54:15.487Z,25.55
2022-09-13T07:56:46.344Z,25.15
2022-09-13T07:59:19.448Z,22.35
2022-09-13T08:01:54.764Z,21.48
2022-09-13T08:04:28.508Z,19.35
2022-09-13T08:06:59.826Z,16.42
2022-09-13T08:09:31.083Z,14.90
2022-09-13T08:12:01.947Z,12.75
2022-09-13T08:14:34.349Z,11.43
2022-09-13T08:17:05.074Z,9.95
2022-09-13T08:19:35.965Z,10.27
2022-09-13T08:22:06.767Z,10.57
2022-09-13T08:24:38.095Z,10.10
2022-09-13T08:29:51.817Z,12.10
2022-09-13T08:34:53.314Z,14.85
2022-09-13T08:37:23.975Z,17.85
2022-09-13T08:39:54.743Z,25.83
2022-09-13T08:42:52.020Z,20.10
2022-09-13T08:45:22.933Z,22.35
2022-09-13T08:48:06.913Z,21.05
2022-09-13T08:50:39.579Z,22.88
2022-09-13T08:53:23.916Z,20.92
2022-09-13T08:56:11.159Z,17.98
2022-09-13T08:59:11.563Z,17.50
2022-09-13T09:01:54.469Z,15.75
2022-09-13T09:04:35.110Z,15.90
2022-09-13T09:07:27.029Z,14.17
2022-09-13T09:10:23.469Z,14.07
2022-09-13T09:13:24.267Z,13.85
2022-09-13T09:16:02.079Z,12.48
2022-09-13T09:18:38.291Z,12.30
2022-09-13T09:21:18.364Z,13.38
2022-09-13T09:23:51.798Z,13.32
2022-09-13T09:26:26.672Z,14.07
2022-09-13T09:29:25.239Z,13.13
2022-09-13T09:32:01.996Z,15.18
2022-09-13T09:34:45.252Z,13.52
2022-09-13T09:37:31.515Z,13.20
2022-09-13T09:40:07.270Z,13.40
2022-09-13T09:42:50.316Z,14.50
2022-09-13T09:45:28.401Z,15.32
2022-09-13T09:48:02.280Z,15.38
2022-09-13T09:50:39.155Z,13.98
2022-09-13T09:53:39.223Z,15.10
2022-09-13T09:56:19.394Z,17.65
2022-09-13T09:58:50.780Z,17.85
2022-09-13T10:04:23.536Z,18.40
2022-09-13T10:07:13.776Z,19.27
2022-09-13T10:10:11.629Z,19.08
2022-09-13T10:12:43.514Z,17.67
2022-09-13T10:15:23.905Z,20.13
2022-09-13T10:18:16.826Z,27.60
2022-09-13T10:21:22.657Z,28.52
2022-09-13T10:23:54.469Z,32.40
2022-09-13T10:26:29.289Z,34.78
2022-09-13T10:29:10.076Z,37.65
2022-09-13T10:31:44.639Z,37.80
2022-09-13T10:34:16.733Z,38.67
2022-09-13T10:37:15.526Z,38.45
2022-09-13T10:39:55.530Z,38.78
2022-09-13T10:42:29.151Z,37.83
2022-09-13T10:45:04.199Z,35.67
2022-09-13T10:47:53.015Z,32.05
2022-09-13T10:50:38.664Z,36.97
2022-09-13T10:53:42.822Z,33.40
2022-09-13T10:56:24.222Z,36.25
2022-09-13T11:01:25.715Z,39.78
2022-09-13T11:04:22.193Z,41.83
2022-09-13T11:07:06.517Z,43.85
2022-09-13T11:09:51.846Z,44.92
2022-09-13T11:12:31.195Z,41.97
2022-09-13T11:15:28.757Z,40.85
2022-09-13T11:18:08.024Z,43.83
2022-09-13T11:20:55.212Z,44.25
2022-09-13T11:23:39.729Z,46.55
2022-09-13T11:26:13.260Z,41.22
2022-09-13T11:29:09.572Z,43.90
2022-09-13T11:31:57.440Z,44.55
2022-09-13T11:34:31.654Z,42.60
2022-09-13T11:37:28.417Z,43.80
2022-09-13T11:40:23.911Z,44.45
2022-09-13T11:43:28.248Z,44.58
2022-09-13T11:46:07.441Z,45.25
2022-09-13T11:49:23.163Z,46.55
2022-09-13T11:52:02.853Z,48.35
2022-09-13T11:54:50.764Z,45.33
2022-09-13T11:57:29.935Z,48.53
2022-09-13T12:00:05.282Z,48.88
2022-09-13T12:03:00.589Z,48.67
2022-09-13T12:05:42.429Z,52.28
2022-09-13T12:08:13.221Z,51.13
2022-09-13T12:11:00.510Z,52.92
2022-09-13T12:13:35.592Z,50.58
2022-09-13T12:16:14.441Z,47.50
2022-09-13T12:18:52.994Z,47.50
2022-09-13T12:21:29.031Z,42.13
2022-09-13T12:24:08.510Z,42.53
2022-09-13T12:26:48.172Z,41.08
2022-09-13T12:29:32.604Z,39.20
2022-09-13T12:32:07.779Z,41.35
2022-09-13T12:35:03.198Z,41.28
2022-09-13T12:37:54.997Z,49.22
2022-09-13T12:40:53.250Z,42.35
2022-09-13T12:43:53.584Z,42.08
2022-09-13T12:46:45.611Z,37.33
2022-09-13T12:49:38.933Z,38.80
2022-09-13T12:53:00.039Z,41.15
2022-09-13T12:55:47.015Z,38.80
2022-09-13T12:58:41.365Z,37.55
2022-09-13T13:01:20.890Z,41.63
2022-09-13T13:04:16.394Z,40.55
2022-09-13T13:06:58.672Z,44.20
2022-09-13T13:09:49.528Z,39.40
2022-09-13T13:12:44.118Z,42.47
2022-09-13T13:15:29.976Z,38.63
2022-09-13T13:18:21.306Z,35.38
2022-09-13T13:20:58.210Z,35.75
2022-09-13T13:23:34.357Z,36.95
2022-09-13T13:26:35.940Z,34.63
2022-09-13T13:29:07.844Z,39.53
2022-09-13T13:31:40.964Z,30.98
2022-09-13T13:34:18.302Z,34.58
2022-09-13T13:36:55.271Z,33.83
2022-09-13T13:39:29.380Z,33.17
2022-09-13T13:42:21.823Z,34.15
2022-09-13T13:44:56.556Z,33.38
2022-09-13T13:47:33.530Z,28.80
2022-09-13T13:50:21.634Z,28.15
2022-09-13T13:53:01.385Z,27.13
2022-09-13T13:55:52.054Z,26.40
2022-09-13T13:58:22.941Z,26.13
2022-09-13T14:00:56.678Z,30.85
2022-09-13T14:03:54.248Z,24.42
2022-09-13T14:06:40.309Z,26.00
2022-09-13T14:09:34.183Z,23.85
2022-09-13T14:12:23.241Z,24.35
2022-09-13T14:15:10.523Z,25.85
2022-09-13T14:18:01.594Z,25.60
2022-09-13T14:20:32.756Z,23.35
2022-09-13T14:23:23.074Z,24.35
2022-09-13T14:26:02.468Z,26.17
2022-09-13T14:28:35.731Z,23.55
2022-09-13T14:32:24.850Z,23.85
2022-09-13T14:35:04.722Z,27.55
2022-09-13T14:37:39.453Z,23.80
2022-09-13T14:40:25.919Z,26.10
2022-09-13T14:42:58.757Z,27.25
2022-09-13T14:45:29.634Z,24.88
2022-09-13T14:48:25.468Z,24.17
2022-09-13T14:51:35.255Z,22.23
2022-09-13T14:54:23.537Z,24.42
2022-09-13T14:57:02.064Z,24.67
2022-09-13T14:59:37.209Z,22.15
2022-09-13T15:02:35.423Z,24.25
2022-09-13T15:05:11.933Z,21.90
2022-09-13T15:07:44.655Z,22.17
2022-09-13T15:10:21.267Z,25.05
2022-09-13T15:13:10.032Z,26.80
2022-09-13T15:15:43.112Z,25.05
2022-09-13T15:18:20.001Z,20.95
2022-09-13T15:21:02.396Z,23.58
2022-09-13T15:23:34.234Z,20.33
2022-09-13T15:26:11.599Z,22.42
2022-09-13T15:28:48.581Z,22.92
2022-09-13T15:31:32.601Z,28.77
2022-09-13T15:34:21.501Z,26.33
2022-09-13T15:37:11.359Z,25.65
2022-09-13T15:39:51.089Z,25.83
2022-09-13T15:42:21.923Z,25.38
2022-09-13T15:44:52.770Z,24.58
2022-09-13T15:47:23.650Z,23.20
2022-09-13T15:49:55.458Z,25.38
2022-09-13T15:52:26.732Z,24.35
2022-09-13T15:57:31.072Z,24.02
2022-09-13T16:00:06.181Z,24.33
2022-09-13T16:02:40.272Z,26.02
2022-09-13T16:05:11.377Z,26.80
2022-09-13T16:07:43.423Z,27.75
2022-09-13T16:10:18.368Z,23.98
2022-09-13T16:12:49.640Z,25.85
2022-09-13T16:17:51.164Z,23.00
2022-09-13T16:20:22.778Z,22.38
2022-09-13T16:22:53.760Z,21.80
2022-09-13T16:25:25.126Z,21.67
2022-09-13T16:27:57.701Z,21.20
2022-09-13T16:30:30.623Z,21.33
2022-09-13T16:33:01.540Z,20.83
2022-09-13T16:35:33.917Z,21.00
2022-09-13T16:38:04.725Z,18.73
2022-09-13T16:40:35.520Z,19.15
2022-09-13T16:43:06.583Z,18.65
2022-09-13T16:45:37.819Z,19.80
2022-09-13T16:50:42.487Z,20.08
2022-09-13T16:53:13.402Z,21.65
2022-09-13T16:55:44.575Z,19.77
2022-09-13T16:58:15.443Z,18.65
2022-09-13T17:00:47.582Z,18.52
2022-09-13T17:03:18.324Z,19.65
2022-09-13T17:06:01.004Z,20.17
2022-09-13T17:08:32.607Z,21.23
2022-09-13T17:11:07.372Z,19.50
2022-09-13T17:13:39.207Z,19.00
2022-09-13T17:16:21.570Z,19.55
2022-09-13T17:18:53.034Z,20.70
2022-09-13T17:21:24.995Z,19.25
2022-09-13T17:23:55.846Z,21.33
2022-09-13T17:26:26.631Z,20.20
2022-09-13T17:28:57.664Z,20.23
2022-09-13T17:31:28.631Z,18.63
2022-09-13T17:33:59.516Z,21.67
2022-09-13T17:36:30.512Z,17.00
2022-09-13T17:39:01.870Z,18.23
2022-09-13T17:44:03.711Z,17.50
2022-09-13T17:46:34.712Z,16.43
2022-09-13T17:49:05.710Z,15.35
2022-09-13T17:51:37.161Z,15.88
2022-09-13T17:54:10.006Z,16.92
2022-09-13T17:56:44.857Z,13.98
2022-09-13T17:59:22.555Z,15.45
2022-09-13T18:01:55.904Z,14.93
2022-09-13T18:04:26.840Z,13.98
2022-09-13T18:06:58.626Z,19.27
2022-09-13T18:09:29.754Z,14.55
2022-09-13T18:12:00.522Z,15.90
2022-09-13T18:14:31.269Z,14.70
2022-09-13T18:17:02.450Z,14.15
2022-09-13T18:19:45.827Z,16.50
2022-09-13T18:22:17.615Z,15.45
2022-09-13T18:24:48.364Z,14.32
2022-09-13T18:27:19.279Z,14.60
2022-09-13T18:29:50.213Z,14.10
2022-09-13T18:32:21.227Z,14.55
2022-09-13T18:34:52.017Z,13.63
2022-09-13T18:37:22.929Z,12.40
2022-09-13T18:39:53.700Z,15.33
2022-09-13T18:42:24.420Z,13.93
2022-09-13T18:44:55.600Z,12.93
2022-09-13T18:49:57.210Z,14.50
2022-09-13T18:52:27.991Z,16.58
2022-09-13T18:54:58.791Z,16.93
2022-09-13T18:57:30.508Z,13.68
2022-09-13T19:00:02.097Z,18.60
2022-09-13T19:02:34.061Z,12.77
2022-09-13T19:05:07.032Z,13.57
2022-09-13T19:07:38.631Z,12.23
2022-09-13T19:12:46.286Z,16.48
2022-09-13T19:15:17.238Z,13.15
2022-09-13T19:17:48.396Z,13.13
2022-09-13T19:20:19.460Z,12.88
2022-09-13T19:22:50.149Z,13.75
2022-09-13T19:25:21.193Z,13.50
2022-09-13T19:27:51.953Z,15.70
2022-09-13T19:30:22.984Z,13.38
2022-09-13T19:32:53.840Z,15.65
2022-09-13T19:35:24.768Z,15.98
2022-09-13T19:37:56.661Z,14.13
2022-09-13T19:40:27.781Z,13.15
2022-09-13T19:42:58.513Z,13.85
2022-09-13T19:45:29.360Z,16.17
2022-09-13T19:48:37.004Z,15.80
2022-09-13T19:50:51.778Z,14.93
2022-09-13T19:53:35.543Z,13.18
2022-09-13T19:56:16.979Z,13.15
2022-09-13T19:58:48.391Z,13.50
2022-09-13T20:01:22.025Z,12.90
2022-09-13T20:04:05.002Z,13.50
2022-09-13T20:06:44.203Z,14.40
2022-09-13T20:09:16.790Z,13.85
2022-09-13T20:11:48.511Z,13.07
2022-09-13T20:14:22.197Z,12.88
2022-09-13T20:16:53.079Z,20.00
2022-09-13T20:19:40.632Z,14.00
2022-09-13T20:22:12.461Z,13.40
2022-09-13T20:24:43.191Z,13.07
2022-09-13T20:27:14.191Z,14.63
2022-09-13T20:29:44.926Z,12.98
2022-09-13T20:32:15.607Z,12.77
2022-09-13T20:34:46.101Z,13.32
2022-09-13T20:37:16.936Z,13.87
2022-09-13T20:40:06.444Z,13.80
2022-09-13T20:42:37.367Z,15.20
2022-09-13T20:45:08.671Z,12.38
2022-09-13T20:50:10.583Z,15.25
2022-09-13T20:52:41.523Z,13.13
2022-09-13T20:55:12.556Z,13.68
2022-09-13T20:57:43.295Z,13.77
2022-09-13T21:00:15.253Z,12.17
2022-09-13T21:05:31.643Z,14.00
2022-09-13T21:08:21.138Z,13.87
2022-09-13T21:11:06.162Z,13.80
2022-09-13T21:13:39.232Z,13.63
2022-09-13T21:16:15.651Z,18.30
2022-09-13T21:18:47.209Z,15.82
2022-09-13T21:21:21.018Z,12.82
2022-09-13T21:23:51.782Z,13.10
2022-09-13T21:26:25.452Z,13.30
2022-09-13T21:28:57.624Z,13.38
2022-09-13T21:31:46.766Z,17.15
2022-09-13T21:34:22.137Z,15.00
2022-09-13T21:36:53.724Z,13.93
2022-09-13T21:39:24.475Z,15.65
2022-09-13T21:41:55.133Z,16.80
2022-09-13T21:44:25.862Z,15.90
2022-09-13T21:49:41.645Z,16.02
2022-09-13T21:52:12.424Z,16.60
2022-09-13T21:54:43.177Z,14.90
2022-09-13T21:57:13.816Z,14.67
2022-09-13T21:59:44.497Z,15.20
2022-09-13T22:02:33.828Z,13.82
2022-09-13T22:05:04.712Z,15.95
2022-09-13T22:07:36.328Z,14.65
2022-09-13T22:10:07.645Z,15.43
2022-09-13T22:15:09.604Z,16.30
2022-09-13T22:20:10.840Z,14.45
2022-09-13T22:22:41.470Z,14.50
2022-09-13T22:25:12.408Z,12.87
2022-09-13T22:27:43.767Z,16.35
2022-09-13T22:32:45.219Z,15.40
2022-09-13T22:35:15.941Z,17.93
2022-09-13T22:37:46.783Z,15.27
2022-09-13T22:40:17.683Z,16.00
2022-09-13T22:42:48.358Z,20.10
2022-09-13T22:45:19.312Z,20.80
2022-09-13T22:47:50.059Z,18.08
2022-09-13T22:54:32.733Z,17.67
2022-09-13T22:57:03.545Z,20.92
2022-09-13T22:59:34.340Z,22.55
2022-09-13T23:02:05.206Z,21.08
2022-09-13T23:04:36.073Z,21.35
2022-09-13T23:07:06.798Z,21.83
2022-09-13T23:09:37.351Z,19.43
2022-09-13T23:12:08.351Z,18.93
2022-09-13T23:14:39.184Z,19.40
2022-09-13T23:17:09.948Z,22.85
2022-09-13T23:19:40.995Z,19.73
2022-09-13T23:22:11.696Z,17.08
2022-09-13T23:24:42.328Z,18.93
2022-09-13T23:27:13.113Z,18.50
2022-09-13T23:29:43.912Z,21.83
2022-09-13T23:32:14.790Z,21.42
2022-09-13T23:34:45.785Z,19.95
2022-09-13T23:37:16.617Z,18.38
2022-09-13T23:39:47.472Z,18.50
2022-09-13T23:42:18.328Z,18.13
2022-09-13T23:44:49.002Z,19.25
2022-09-13T23:47:20.049Z,18.37
2022-09-13T23:49:50.855Z,20.52
2022-09-13T23:52:21.831Z,21.42
2022-09-13T23:54:53.608Z,18.73
2022-09-13T23:57:27.546Z,19.23
2022-09-13T23:59:58.319Z,20.27
